Time;durP1;ratioP1;P1;durP2;ratioP2;P2;SDS_P1;SDS_P2;PMS_P1;PMS_P2;Temp;Humidity;BMP_temperature;BMP_pressure;BME280_temperature;BME280_humidity;BME280_pressure;Samples;Min_cycle;Max_cycle;Signal;HPM_P1;HPM_P2
2022/04/10 00:01:05;;;;;;;4.65;3.47;;;7.90;48.20;;;;;;20648;6858;117118;-77
2022/04/10 00:03:31;;;;;;;3.92;3.62;;;7.60;48.50;;;;;;20669;6858;116955;-77
2022/04/10 00:05:56;;;;;;;3.80;3.50;;;7.30;49.30;;;;;;20433;6858;308206;-76
2022/04/10 00:08:22;;;;;;;4.00;3.70;;;7.30;49.20;;;;;;20438;6858;336799;-77
2022/04/10 00:10:47;;;;;;;3.80;3.53;;;7.50;48.80;;;;;;20462;6858;311694;-77
2022/04/10 00:13:13;;;;;;;3.22;3.08;;;7.70;48.50;;;;;;20688;6858;117518;-75
2022/04/10 00:15:39;;;;;;;4.20;3.70;;;7.50;48.80;;;;;;20475;6858;308083;-76
2022/04/10 00:18:04;;;;;;;4.37;3.72;;;7.40;48.80;;;;;;20460;6858;335704;-77
2022/04/10 00:20:30;;;;;;;3.80;3.50;;;7.60;48.70;;;;;;20451;6858;308198;-76
2022/04/10 00:22:57;;;;;;;3.45;3.25;;;7.70;48.20;;;;;;20464;6858;337277;-77
2022/04/10 00:25:24;;;;;;;3.57;3.33;;;7.80;48.00;;;;;;20694;6858;117018;-77
2022/04/10 00:27:49;;;;;;;3.53;3.30;;;7.60;48.50;;;;;;20475;6858;308272;-75
2022/04/10 00:30:15;;;;;;;3.62;3.33;;;7.40;48.60;;;;;;20477;6858;279326;-77
2022/04/10 00:32:40;;;;;;;3.70;3.40;;;7.60;48.30;;;;;;20438;6858;307790;-77
2022/04/10 00:35:07;;;;;;;3.33;3.12;;;7.50;48.40;;;;;;20686;6858;119894;-77
2022/04/10 00:37:35;;;;;;;3.17;2.97;;;7.50;48.30;;;;;;20679;6856;116979;-77
2022/04/10 00:40:01;;;;;;;3.53;3.33;;;7.10;49.20;;;;;;20466;6857;312385;-77
2022/04/10 00:42:39;;;;;;;3.28;3.05;;;7.10;49.30;;;;;;20656;6857;119873;-76
2022/04/10 00:45:05;;;;;;;3.87;3.57;;;7.00;49.50;;;;;;20464;6857;308694;-79
2022/04/10 00:47:30;;;;;;;3.60;3.20;;;7.10;49.30;;;;;;20674;6858;117164;-77
2022/04/10 00:50:00;;;;;;;3.53;3.27;;;7.00;49.80;;;;;;20686;6858;117530;-74
2022/04/10 00:52:25;;;;;;;3.50;3.20;;;6.70;50.20;;;;;;20448;6858;308524;-77
2022/04/10 00:54:51;;;;;;;3.73;3.43;;;7.00;49.40;;;;;;20452;6858;308373;-76
2022/04/10 00:57:17;;;;;;;4.13;3.20;;;7.10;49.40;;;;;;20659;6858;117472;-78
2022/04/10 00:59:42;;;;;;;3.67;3.17;;;7.00;49.60;;;;;;20670;6858;117126;-75
2022/04/10 01:02:08;;;;;;;4.10;3.80;;;6.70;50.10;;;;;;20459;6858;337909;-77
2022/04/10 01:04:34;;;;;;;3.80;3.50;;;6.80;50.00;;;;;;20455;6858;282225;-77
2022/04/10 01:06:59;;;;;;;3.12;2.92;;;7.10;49.70;;;;;;20681;6858;121179;-77
2022/04/10 01:09:25;;;;;;;3.63;3.33;;;7.00;49.70;;;;;;20463;6858;320365;-76
2022/04/10 01:11:56;;;;;;;3.93;3.63;;;7.00;49.20;;;;;;20439;6858;312695;-74
2022/04/10 01:14:22;;;;;;;3.80;3.30;;;7.20;49.20;;;;;;20630;6858;117155;-77
2022/04/10 01:16:47;;;;;;;3.55;3.35;;;7.10;49.50;;;;;;20477;6858;283416;-75
2022/04/10 01:19:13;;;;;;;3.50;3.20;;;7.10;49.30;;;;;;20477;6858;278737;-77
2022/04/10 01:21:38;;;;;;;3.50;3.30;;;7.30;48.90;;;;;;20454;6858;278252;-77
2022/04/10 01:24:06;;;;;;;3.43;3.00;;;7.40;48.40;;;;;;20687;6858;119566;-76
2022/04/10 01:26:32;;;;;;;3.47;3.27;;;7.20;48.70;;;;;;20411;6873;309503;-76
2022/04/10 01:28:59;;;;;;;3.17;2.97;;;7.10;49.10;;;;;;20627;6877;117265;-79
2022/04/10 01:31:24;;;;;;;3.63;2.93;;;7.00;49.00;;;;;;20615;6873;117225;-76
2022/04/10 01:33:51;;;;;;;3.43;3.00;;;6.50;50.40;;;;;;20635;6873;117851;-76
2022/04/10 01:36:16;;;;;;;3.83;3.53;;;6.50;50.30;;;;;;20419;6873;308419;-75
2022/04/10 01:38:42;;;;;;;3.60;3.40;;;6.60;50.20;;;;;;20619;6873;122784;-78
2022/04/10 01:41:11;;;;;;;3.83;3.53;;;6.60;50.20;;;;;;20424;6873;279889;-77
2022/04/10 01:43:36;;;;;;;3.30;3.10;;;6.70;49.80;;;;;;20365;6873;279824;-74
2022/04/10 01:46:02;;;;;;;3.80;3.22;;;7.00;49.10;;;;;;20656;6858;117205;-77
2022/04/10 01:48:28;;;;;;;3.23;3.03;;;6.90;49.20;;;;;;20391;6875;337562;-77
2022/04/10 01:50:54;;;;;;;3.35;3.05;;;6.90;49.20;;;;;;20693;6853;117858;-76
2022/04/10 01:53:21;;;;;;;3.57;3.37;;;6.50;50.10;;;;;;20672;6857;117151;-75
2022/04/10 01:55:47;;;;;;;3.37;2.93;;;6.50;50.10;;;;;;20640;6872;117004;-77
2022/04/10 01:58:13;;;;;;;3.80;3.50;;;6.30;50.80;;;;;;20413;6877;280672;-76
2022/04/10 02:00:39;;;;;;;4.62;3.60;;;6.40;50.70;;;;;;20622;6854;120921;-77
2022/04/10 02:03:04;;;;;;;3.20;3.00;;;6.40;50.70;;;;;;20666;6864;117625;-75
2022/04/10 02:05:30;;;;;;;3.30;3.10;;;6.20;51.00;;;;;;20671;6864;116921;-76
2022/04/10 02:07:55;;;;;;;3.80;3.50;;;6.10;51.60;;;;;;20669;6864;117192;-77
2022/04/10 02:10:22;;;;;;;3.12;3.00;;;6.00;51.90;;;;;;20616;6873;118999;-77
2022/04/10 02:12:48;;;;;;;3.65;3.42;;;5.90;52.20;;;;;;20424;6875;337506;-75
2022/04/10 02:15:13;;;;;;;4.10;3.60;;;6.10;51.60;;;;;;20643;6873;117365;-76
2022/04/10 02:17:39;;;;;;;3.87;2.80;;;6.20;51.50;;;;;;20607;6862;117877;-77
2022/04/10 02:20:05;;;;;;;3.62;3.42;;;6.10;51.80;;;;;;20433;6862;308672;-77
2022/04/10 02:22:30;;;;;;;3.43;3.23;;;6.30;51.20;;;;;;20630;6862;118136;-77
2022/04/10 02:24:56;;;;;;;3.87;3.53;;;6.30;51.10;;;;;;20677;6862;117990;-75
2022/04/10 02:27:22;;;;;;;4.13;3.90;;;6.10;51.50;;;;;;20439;6862;314339;-77
2022/04/10 02:29:47;;;;;;;3.77;3.50;;;6.20;51.00;;;;;;20409;6862;309742;-77
2022/04/10 02:32:13;;;;;;;4.00;3.70;;;6.50;50.40;;;;;;20436;6867;287307;-74
2022/04/10 02:34:38;;;;;;;4.00;3.70;;;6.80;49.80;;;;;;20635;6867;121340;-77
2022/04/10 02:37:04;;;;;;;3.95;3.67;;;6.60;49.80;;;;;;20441;6867;295834;-77
2022/04/10 02:39:29;;;;;;;3.70;3.40;;;6.60;49.70;;;;;;20643;6867;119215;-77
2022/04/10 02:41:55;;;;;;;4.32;4.03;;;6.50;50.00;;;;;;20425;6867;283349;-75
2022/04/10 02:44:22;;;;;;;4.20;3.70;;;6.50;49.80;;;;;;20415;6867;321660;-77
2022/04/10 02:46:48;;;;;;;4.47;3.83;;;6.70;49.50;;;;;;20449;6867;311358;-76
2022/04/10 02:49:13;;;;;;;4.07;3.77;;;6.80;49.00;;;;;;20440;6867;312511;-75
2022/04/10 02:51:39;;;;;;;4.10;3.80;;;7.00;48.80;;;;;;20433;6867;309297;-77
2022/04/10 02:54:04;;;;;;;4.32;3.87;;;7.00;48.40;;;;;;20439;6867;338326;-77
2022/04/10 02:56:31;;;;;;;3.55;3.25;;;6.80;48.80;;;;;;20628;6858;119630;-74
2022/04/10 02:58:57;;;;;;;3.77;3.47;;;6.70;48.70;;;;;;20681;6857;123745;-77
2022/04/10 03:01:23;;;;;;;4.00;3.70;;;6.40;49.60;;;;;;20464;6858;308433;-77
2022/04/10 03:03:48;;;;;;;4.40;4.10;;;6.30;49.70;;;;;;20473;6858;308650;-77
2022/04/10 03:06:16;;;;;;;3.60;3.30;;;6.50;49.20;;;;;;20679;6858;117139;-75
2022/04/10 03:08:41;;;;;;;3.67;3.47;;;6.30;49.40;;;;;;20678;6858;118180;-78
2022/04/10 03:11:07;;;;;;;4.27;3.90;;;6.00;50.10;;;;;;20476;6858;309805;-78
2022/04/10 03:13:32;;;;;;;4.13;3.77;;;6.00;50.30;;;;;;20483;6858;305898;-76
2022/04/10 03:15:58;;;;;;;4.37;3.97;;;6.20;49.90;;;;;;20471;6858;308734;-77
2022/04/10 03:18:25;;;;;;;3.67;3.37;;;6.40;49.40;;;;;;20680;6858;117495;-77
2022/04/10 03:20:50;;;;;;;4.90;3.60;;;6.20;49.60;;;;;;20710;6858;117264;-77
2022/04/10 03:23:16;;;;;;;4.00;3.70;;;5.90;50.40;;;;;;20709;6858;122968;-81
2022/04/10 03:25:41;;;;;;;4.07;3.77;;;5.60;51.10;;;;;;20474;6858;279529;-75
2022/04/10 03:28:07;;;;;;;4.07;3.67;;;5.70;51.20;;;;;;20683;6858;120750;-75
2022/04/10 03:30:32;;;;;;;4.00;3.70;;;5.60;51.20;;;;;;20446;6858;313025;-79
2022/04/10 03:32:59;;;;;;;4.33;3.93;;;6.00;50.50;;;;;;20474;6858;282018;-77
2022/04/10 03:35:25;;;;;;;4.10;3.80;;;6.00;50.50;;;;;;20460;6858;309125;-75
2022/04/10 03:37:52;;;;;;;3.50;3.30;;;6.10;50.00;;;;;;20682;6858;117728;-77
2022/04/10 03:40:17;;;;;;;3.90;3.53;;;6.10;50.00;;;;;;20658;6858;117098;-79
2022/04/10 03:42:43;;;;;;;4.30;4.00;;;5.80;50.80;;;;;;20451;6858;279398;-77
2022/04/10 03:45:09;;;;;;;4.45;4.05;;;5.80;50.80;;;;;;20476;6858;309165;-76
2022/04/10 03:47:35;;;;;;;3.93;3.60;;;5.90;50.30;;;;;;20685;6858;117103;-79
2022/04/10 03:50:00;;;;;;;4.20;3.90;;;5.90;50.30;;;;;;20456;6858;311036;-76
2022/04/10 03:52:27;;;;;;;4.45;4.05;;;5.90;50.40;;;;;;20448;6858;279969;-77
2022/04/10 03:54:53;;;;;;;3.67;3.37;;;6.10;49.80;;;;;;20682;6858;117405;-77
2022/04/10 03:57:18;;;;;;;3.87;3.53;;;5.90;49.90;;;;;;20685;6858;119553;-76
2022/04/10 03:59:44;;;;;;;3.65;3.35;;;5.60;50.70;;;;;;20685;6858;117804;-75
2022/04/10 04:02:11;;;;;;;3.70;3.40;;;5.30;52.10;;;;;;20680;6858;117580;-80
2022/04/10 04:04:36;;;;;;;3.90;3.53;;;5.10;51.90;;;;;;20673;6858;117791;-77
2022/04/10 04:07:02;;;;;;;3.63;3.43;;;5.00;52.50;;;;;;20687;6858;117446;-77
2022/04/10 04:09:28;;;;;;;4.57;4.22;;;4.80;52.80;;;;;;20473;6858;337170;-77
2022/04/10 04:11:53;;;;;;;3.73;3.50;;;5.00;52.80;;;;;;20684;6856;117108;-74
2022/04/10 04:14:20;;;;;;;4.30;4.07;;;5.10;52.70;;;;;;20455;6858;338570;-77
2022/04/10 04:16:44;;;;;;;7.97;4.00;;;5.20;52.30;;;;;;20682;6858;119650;-77
2022/04/10 04:19:11;;;;;;;3.90;3.60;;;5.00;52.70;;;;;;20683;6858;117367;-76
2022/04/10 04:21:36;;;;;;;3.93;3.57;;;5.00;52.70;;;;;;20676;6858;117273;-76
2022/04/10 04:24:02;;;;;;;4.20;3.87;;;4.90;53.30;;;;;;20458;6858;279090;-76
2022/04/10 04:26:27;;;;;;;5.03;4.33;;;5.00;53.10;;;;;;20669;6858;118140;-77
2022/04/10 04:28:53;;;;;;;3.95;3.75;;;5.00;52.90;;;;;;20467;6858;303676;-74
2022/04/10 04:31:19;;;;;;;4.20;3.87;;;5.20;52.60;;;;;;20467;6858;312393;-73
2022/04/10 04:33:44;;;;;;;4.07;3.80;;;5.50;51.70;;;;;;20469;6858;309265;-74
2022/04/10 04:36:10;;;;;;;4.18;3.70;;;5.60;51.20;;;;;;20679;6858;117580;-78
2022/04/10 04:38:36;;;;;;;4.13;3.83;;;5.60;51.20;;;;;;20407;6858;308232;-75
2022/04/10 04:41:02;;;;;;;3.85;3.65;;;5.60;51.20;;;;;;20472;6858;308198;-73
2022/04/10 04:43:28;;;;;;;3.90;3.60;;;5.70;51.40;;;;;;20681;6858;117134;-73
2022/04/10 04:45:53;;;;;;;4.37;4.07;;;5.70;50.80;;;;;;20450;6858;313151;-76
2022/04/10 04:48:19;;;;;;;3.70;3.40;;;5.70;50.90;;;;;;20669;6858;117523;-75
2022/04/10 04:50:47;;;;;;;3.97;3.67;;;5.60;51.20;;;;;;20691;6858;117724;-74
2022/04/10 04:53:12;;;;;;;4.53;4.12;;;5.30;51.90;;;;;;20466;6858;309106;-75
2022/04/10 04:55:38;;;;;;;4.20;3.93;;;5.30;51.90;;;;;;20688;6858;117761;-76
2022/04/10 04:58:03;;;;;;;4.70;4.23;;;5.30;52.00;;;;;;20469;6858;309208;-75
2022/04/10 05:00:29;;;;;;;4.77;4.43;;;5.40;51.90;;;;;;20451;6858;317629;-76
2022/04/10 05:02:54;;;;;;;3.97;3.60;;;5.60;51.30;;;;;;20678;6858;117273;-76
2022/04/10 05:05:20;;;;;;;3.83;3.45;;;5.50;51.30;;;;;;20685;6858;117112;-75
2022/04/10 05:07:45;;;;;;;4.30;4.00;;;5.30;52.00;;;;;;20668;6858;117187;-74
2022/04/10 05:10:11;;;;;;;4.50;4.20;;;5.00;52.70;;;;;;20677;6858;116943;-76
2022/04/10 05:12:37;;;;;;;3.70;3.40;;;4.80;53.30;;;;;;20660;6858;117463;-75
2022/04/10 05:15:07;;;;;;;3.85;3.60;;;4.70;53.80;;;;;;20686;6858;117251;-76
2022/04/10 05:17:30;;;;;;;3.70;3.40;;;4.60;54.10;;;;;;20667;6858;117899;-76
2022/04/10 05:19:57;;;;;;;4.80;4.25;;;4.60;54.60;;;;;;20468;6858;279076;-80
2022/04/10 05:22:23;;;;;;;4.07;3.80;;;4.90;54.10;;;;;;20646;6857;117261;-78
2022/04/10 05:24:50;;;;;;;4.03;3.77;;;5.00;53.90;;;;;;20700;6858;116583;-78
2022/04/10 05:27:16;;;;;;;3.70;3.40;;;5.00;54.20;;;;;;20696;6858;116978;-77
2022/04/10 05:29:42;;;;;;;4.67;3.63;;;4.90;54.50;;;;;;20696;6858;117229;-78
2022/04/10 05:32:08;;;;;;;4.30;4.00;;;5.10;54.20;;;;;;20473;6858;283414;-78
2022/04/10 05:34:36;;;;;;;4.40;4.10;;;5.10;54.20;;;;;;20658;6858;118808;-76
2022/04/10 05:37:02;;;;;;;3.77;3.57;;;5.30;54.00;;;;;;20645;6858;117137;-77
2022/04/10 05:39:27;;;;;;;4.70;4.40;;;5.20;54.10;;;;;;20453;6858;279055;-75
2022/04/10 05:41:53;;;;;;;4.60;4.20;;;5.50;53.50;;;;;;20666;6858;117294;-77
2022/04/10 05:44:18;;;;;;;4.62;4.22;;;5.60;53.40;;;;;;20406;6858;332528;-77
2022/04/10 05:46:45;;;;;;;4.83;3.80;;;5.80;52.50;;;;;;20675;6858;116872;-74
2022/04/10 05:49:12;;;;;;;4.30;4.00;;;5.70;53.00;;;;;;20672;6858;121969;-76
2022/04/10 05:51:38;;;;;;;4.28;3.97;;;5.80;52.30;;;;;;20458;6858;337847;-74
2022/04/10 05:54:05;;;;;;;4.07;3.87;;;5.80;52.30;;;;;;20669;6858;117164;-78
2022/04/10 05:56:31;;;;;;;4.67;4.10;;;5.90;52.40;;;;;;20425;6858;308770;-77
2022/04/10 05:58:57;;;;;;;4.80;4.40;;;6.40;50.70;;;;;;20457;6858;308838;-77
2022/04/10 06:01:23;;;;;;;4.43;4.00;;;6.40;50.70;;;;;;20669;6858;118000;-77
2022/04/10 06:03:48;;;;;;;4.60;4.18;;;6.40;50.80;;;;;;20455;6858;283707;-76
2022/04/10 06:06:15;;;;;;;3.93;3.63;;;6.50;50.50;;;;;;20688;6858;118885;-75
2022/04/10 06:08:41;;;;;;;4.47;4.17;;;6.40;50.80;;;;;;20414;6858;281819;-73
2022/04/10 06:11:07;;;;;;;4.70;4.37;;;6.50;50.60;;;;;;20421;6858;308235;-76
2022/04/10 06:13:32;;;;;;;4.10;3.80;;;6.80;49.80;;;;;;20649;6858;117360;-76
2022/04/10 06:15:59;;;;;;;4.60;4.20;;;6.70;50.00;;;;;;20417;6858;283761;-77
2022/04/10 06:18:26;;;;;;;4.62;4.32;;;7.10;49.50;;;;;;20440;6858;280018;-76
2022/04/10 06:20:52;;;;;;;4.90;4.60;;;7.10;49.30;;;;;;20417;6858;308228;-71
2022/04/10 06:23:20;;;;;;;3.80;3.60;;;7.40;48.60;;;;;;20656;6858;118250;-73
2022/04/10 06:25:44;;;;;;;4.27;3.97;;;7.30;49.10;;;;;;20465;6858;308658;-72
2022/04/10 06:28:10;;;;;;;3.92;3.62;;;7.20;49.30;;;;;;20689;6858;117890;-73
2022/04/10 06:30:36;;;;;;;4.40;4.10;;;7.20;49.30;;;;;;20426;6858;308737;-75
2022/04/10 06:33:03;;;;;;;4.47;4.10;;;7.30;49.10;;;;;;20471;6858;278291;-76
2022/04/10 06:35:30;;;;;;;4.50;4.10;;;7.60;48.80;;;;;;20468;6857;308746;-72
2022/04/10 06:37:55;;;;;;;4.40;4.00;;;7.90;48.30;;;;;;20467;6858;303218;-70
2022/04/10 06:40:21;;;;;;;4.40;4.00;;;8.10;47.80;;;;;;20665;6858;118323;-71
2022/04/10 06:42:46;;;;;;;4.10;3.80;;;8.00;48.40;;;;;;20464;6858;279855;-68
2022/04/10 06:45:12;;;;;;;4.03;3.80;;;8.00;47.70;;;;;;20473;6858;280791;-70
2022/04/10 06:47:37;;;;;;;4.62;4.22;;;8.20;47.20;;;;;;20469;6858;309189;-71
2022/04/10 06:50:04;;;;;;;4.28;3.97;;;8.40;47.40;;;;;;20686;6858;117584;-73
2022/04/10 06:52:29;;;;;;;4.87;3.80;;;8.40;47.40;;;;;;20657;6858;117840;-72
2022/04/10 06:54:56;;;;;;;3.90;3.70;;;8.30;47.70;;;;;;20455;6858;313178;-71
2022/04/10 06:57:21;;;;;;;4.03;3.77;;;8.30;47.70;;;;;;20676;6858;117248;-73
2022/04/10 06:59:47;;;;;;;4.20;3.90;;;8.40;48.10;;;;;;20440;6858;309066;-71
2022/04/10 07:02:13;;;;;;;3.97;3.65;;;8.70;47.60;;;;;;20681;6858;117070;-73
2022/04/10 07:04:39;;;;;;;4.60;3.53;;;8.70;48.10;;;;;;20666;6858;117725;-73
2022/04/10 07:07:05;;;;;;;6.63;6.20;;;8.90;48.50;;;;;;20468;6858;280003;-72
2022/04/10 07:09:31;;;;;;;13.90;12.70;;;8.90;47.60;;;;;;20681;6858;117258;-72
2022/04/10 07:11:56;;;;;;;4.07;3.73;;;9.00;48.10;;;;;;20678;6858;121277;-73
2022/04/10 07:14:23;;;;;;;5.83;5.33;;;9.00;48.30;;;;;;20460;6858;278250;-76
2022/04/10 07:16:49;;;;;;;4.27;3.97;;;9.30;46.30;;;;;;20479;6858;279098;-72
2022/04/10 07:19:14;;;;;;;5.07;4.75;;;9.60;45.30;;;;;;20474;6858;278670;-77
2022/04/10 07:24:26;;;;;;;5.50;5.07;;;9.90;44.40;;;;;;20444;6858;303931;-72
2022/04/10 07:26:52;;;;;;;5.95;5.45;;;9.90;43.50;;;;;;20465;6858;307988;-74
2022/04/10 07:29:16;;;;;;;5.10;4.37;;;10.10;42.20;;;;;;20462;6858;308411;-73
2022/04/10 07:31:42;;;;;;;4.03;3.72;;;10.30;41.80;;;;;;20679;6858;118197;-73
2022/04/10 07:34:08;;;;;;;5.20;4.90;;;10.20;42.60;;;;;;20685;6858;117548;-72
2022/04/10 07:36:33;;;;;;;4.30;3.95;;;9.90;44.60;;;;;;20664;6858;117670;-74
2022/04/10 07:39:00;;;;;;;4.37;3.97;;;9.60;45.90;;;;;;20680;6858;118093;-71
2022/04/10 07:41:25;;;;;;;3.77;3.50;;;9.60;45.90;;;;;;20666;6858;117399;-73
2022/04/10 07:43:51;;;;;;;4.93;4.53;;;9.50;46.70;;;;;;20671;6858;117057;-72
2022/04/10 07:49:03;;;;;;;4.27;3.97;;;9.50;47.50;;;;;;20465;6858;329714;-71
2022/04/10 07:51:28;;;;;;;4.40;4.07;;;9.90;45.10;;;;;;20680;6858;117765;-72
2022/04/10 07:53:56;;;;;;;4.12;3.83;;;10.00;44.60;;;;;;20458;6858;337782;-71
2022/04/10 07:56:19;;;;;;;4.67;4.23;;;10.30;42.80;;;;;;20429;6858;304792;-71
2022/04/10 07:58:46;;;;;;;3.63;3.43;;;10.90;43.40;;;;;;20674;6858;122936;-70
2022/04/10 08:01:12;;;;;;;3.57;3.37;;;10.80;42.70;;;;;;20670;6858;117839;-72
2022/04/10 08:03:38;;;;;;;4.33;3.93;;;10.80;43.40;;;;;;20453;6858;317076;-70
2022/04/10 08:06:04;;;;;;;3.70;3.43;;;11.10;42.20;;;;;;20685;6858;117702;-67
2022/04/10 08:08:30;;;;;;;4.63;4.33;;;11.20;42.70;;;;;;20659;6858;117674;-67
2022/04/10 08:10:56;;;;;;;5.07;4.30;;;11.20;43.30;;;;;;20455;6858;283219;-71
2022/04/10 08:13:22;;;;;;;4.23;3.93;;;11.50;41.20;;;;;;20470;6858;308662;-69
2022/04/10 08:15:48;;;;;;;4.30;4.00;;;11.70;40.10;;;;;;20457;6858;322941;-69
2022/04/10 08:18:13;;;;;;;4.47;4.07;;;12.00;39.30;;;;;;20461;6858;279375;-70
2022/04/10 08:20:40;;;;;;;4.75;4.45;;;12.20;39.00;;;;;;20441;6858;407737;-72
2022/04/10 08:23:06;;;;;;;3.83;3.63;;;12.30;38.90;;;;;;20661;6858;120471;-72
2022/04/10 08:25:31;;;;;;;4.70;4.30;;;12.00;40.30;;;;;;20465;6858;295730;-73
2022/04/10 08:27:57;;;;;;;4.40;4.10;;;12.00;39.20;;;;;;20679;6858;117780;-74
2022/04/10 08:30:22;;;;;;;4.20;3.90;;;11.90;40.30;;;;;;20454;6858;279278;-74
2022/04/10 08:32:48;;;;;;;4.37;3.95;;;11.90;40.00;;;;;;20685;6858;117894;-74
2022/04/10 08:35:13;;;;;;;4.43;4.15;;;11.90;41.00;;;;;;20465;6858;338338;-74
2022/04/10 08:37:40;;;;;;;4.80;4.37;;;12.00;40.50;;;;;;20672;6858;117481;-76
2022/04/10 08:40:05;;;;;;;4.87;4.57;;;12.00;40.50;;;;;;20470;6858;299037;-73
2022/04/10 08:42:31;;;;;;;3.77;3.53;;;12.20;39.50;;;;;;20658;6858;117689;-76
2022/04/10 08:44:57;;;;;;;3.87;3.67;;;12.40;40.30;;;;;;20678;6858;123634;-70
2022/04/10 08:47:22;;;;;;;3.72;3.42;;;12.30;40.70;;;;;;20682;6858;117380;-75
2022/04/10 08:49:48;;;;;;;3.75;3.22;;;12.20;41.80;;;;;;20677;6858;117440;-73
2022/04/10 08:52:17;;;;;;;4.35;3.95;;;12.20;41.80;;;;;;20461;6858;338310;-73
2022/04/10 08:54:46;;;;;;;4.27;3.50;;;12.60;40.50;;;;;;20682;6858;117654;-81
2022/04/10 08:57:13;;;;;;;3.67;3.37;;;12.90;41.10;;;;;;20679;6857;117432;-76
2022/04/10 08:59:39;;;;;;;5.10;3.78;;;13.00;41.10;;;;;;20465;6858;337285;-73
2022/04/10 09:02:05;;;;;;;3.70;3.40;;;13.30;38.20;;;;;;20674;6858;118186;-74
2022/04/10 09:04:33;;;;;;;4.18;3.87;;;13.50;39.40;;;;;;20445;6858;312693;-74
2022/04/10 09:06:59;;;;;;;3.67;3.30;;;13.90;37.50;;;;;;20464;6858;306786;-73
2022/04/10 09:09:24;;;;;;;3.85;3.33;;;14.40;36.90;;;;;;20448;6858;312041;-75
2022/04/10 09:11:53;;;;;;;3.80;3.22;;;14.90;34.70;;;;;;20679;6858;118068;-75
2022/04/10 09:14:22;;;;;;;3.47;3.20;;;14.80;35.30;;;;;;20667;6858;117195;-76
2022/04/10 09:17:08;;;;;;;2.90;2.70;;;14.40;36.00;;;;;;20502;6858;118132;-78
2022/04/10 09:19:40;;;;;;;3.33;3.10;;;14.00;36.70;;;;;;20477;6858;117853;-74
2022/04/10 09:22:28;;;;;;;4.03;3.60;;;13.50;37.60;;;;;;20450;6858;307552;-74
2022/04/10 09:25:13;;;;;;;2.63;2.43;;;13.40;33.40;;;;;;20669;6858;117649;-74
2022/04/10 09:27:45;;;;;;;3.57;3.00;;;13.20;35.20;;;;;;20470;6858;279650;-79
2022/04/10 09:30:11;;;;;;;3.80;3.50;;;13.20;32.90;;;;;;20670;6858;121772;-73
2022/04/10 09:32:43;;;;;;;3.10;2.83;;;13.10;32.90;;;;;;20446;6858;308640;-73
2022/04/10 09:35:10;;;;;;;3.03;2.80;;;12.90;34.50;;;;;;20672;6858;121413;-71
2022/04/10 09:37:48;;;;;;;2.90;2.70;;;12.90;34.50;;;;;;20675;6858;117508;-72
2022/04/10 09:40:32;;;;;;;3.00;2.80;;;12.70;35.60;;;;;;20469;6858;338532;-75
2022/04/10 09:43:07;;;;;;;2.97;2.77;;;12.70;33.00;;;;;;20680;6858;117521;-75
2022/04/10 09:45:38;;;;;;;3.67;3.00;;;12.50;34.60;;;;;;20463;6858;308213;-74
2022/04/10 09:48:27;;;;;;;3.67;3.37;;;12.50;33.00;;;;;;20448;6858;278605;-74
2022/04/10 09:50:52;;;;;;;19.03;11.37;;;12.70;31.80;;;;;;20666;6858;117881;-75
2022/04/10 09:53:17;;;;;;;6.43;5.82;;;12.10;33.90;;;;;;20459;6858;308824;-73
2022/04/10 09:55:43;;;;;;;3.00;2.80;;;11.80;36.00;;;;;;20677;6858;116339;-69
2022/04/10 09:58:13;;;;;;;3.50;3.20;;;11.80;35.20;;;;;;20407;6858;312522;-71
2022/04/10 10:00:41;;;;;;;3.07;2.77;;;11.70;36.70;;;;;;20622;6858;117884;-73
2022/04/10 10:03:07;;;;;;;3.03;2.73;;;11.40;38.90;;;;;;20647;6858;117412;-72
2022/04/10 10:05:33;;;;;;;6.97;6.37;;;11.40;38.20;;;;;;20649;6858;118434;-73
2022/04/10 10:07:59;;;;;;;5.93;5.43;;;11.40;39.40;;;;;;20675;6858;117851;-74
2022/04/10 10:10:24;;;;;;;3.13;2.90;;;11.40;39.40;;;;;;20659;6857;117634;-71
2022/04/10 10:12:50;;;;;;;3.35;2.95;;;11.60;39.80;;;;;;20455;6858;309090;-72
2022/04/10 10:15:15;;;;;;;2.53;2.35;;;12.00;38.50;;;;;;20678;6858;117548;-69
2022/04/10 10:17:41;;;;;;;4.00;2.60;;;12.40;38.80;;;;;;20680;6858;122110;-70
2022/04/10 10:20:07;;;;;;;3.43;2.63;;;12.40;38.40;;;;;;20677;6858;117451;-71
2022/04/10 10:22:32;;;;;;;2.60;2.40;;;12.30;38.90;;;;;;20447;6858;299036;-73
2022/04/10 10:24:59;;;;;;;2.60;2.40;;;12.70;37.40;;;;;;20682;6858;119096;-71
2022/04/10 10:27:48;;;;;;;3.57;2.33;;;12.70;37.60;;;;;;20280;6858;312583;-72
2022/04/10 10:30:38;;;;;;;2.63;2.33;;;12.90;36.00;;;;;;20680;6858;117409;-77
2022/04/10 10:33:13;;;;;;;2.57;2.37;;;12.70;36.60;;;;;;20671;6858;118023;-75
2022/04/10 10:35:42;;;;;;;2.83;2.37;;;12.40;37.10;;;;;;20682;6858;123768;-72
2022/04/10 10:38:27;;;;;;;3.42;2.75;;;12.00;37.80;;;;;;20468;6858;337796;-72
2022/04/10 10:40:53;;;;;;;3.50;3.30;;;12.10;36.40;;;;;;20473;6858;285803;-72
2022/04/10 10:43:19;;;;;;;3.80;3.60;;;12.40;35.00;;;;;;20397;6858;316045;-72
2022/04/10 10:45:44;;;;;;;3.90;3.70;;;12.40;35.10;;;;;;20436;6858;308663;-69
2022/04/10 10:48:33;;;;;;;3.80;3.60;;;12.40;35.30;;;;;;20679;6858;118361;-70
2022/04/10 10:51:02;;;;;;;3.13;2.93;;;12.00;36.50;;;;;;20675;6858;118044;-69
2022/04/10 10:53:54;;;;;;;4.40;3.07;;;11.60;37.80;;;;;;20610;6858;117415;-71
2022/04/10 10:56:22;;;;;;;3.40;3.20;;;11.30;38.50;;;;;;20451;6858;278494;-71
2022/04/10 10:58:48;;;;;;;3.40;3.20;;;11.30;37.60;;;;;;20449;6858;340149;-71
2022/04/10 11:01:20;;;;;;;3.55;3.25;;;11.50;37.50;;;;;;20674;6858;117974;-73
2022/04/10 11:03:59;;;;;;;3.07;2.93;;;11.40;37.80;;;;;;20650;6858;117889;-73
2022/04/10 11:06:25;;;;;;;3.77;3.43;;;11.10;38.60;;;;;;20449;6858;279259;-71
2022/04/10 11:08:50;;;;;;;2.97;2.78;;;11.10;37.80;;;;;;20662;6858;118090;-73
2022/04/10 11:11:19;;;;;;;3.00;2.80;;;11.30;37.10;;;;;;20459;6858;308159;-71
2022/04/10 11:13:42;;;;;;;3.20;3.00;;;11.30;37.10;;;;;;20469;6858;278984;-75
2022/04/10 11:16:10;;;;;;;3.05;2.85;;;11.60;36.90;;;;;;20462;6858;307476;-77
2022/04/10 11:18:38;;;;;;;2.80;2.60;;;11.90;36.80;;;;;;20652;6858;118494;-74
2022/04/10 11:21:07;;;;;;;3.47;3.17;;;12.00;37.80;;;;;;20443;6857;308734;-72
2022/04/10 11:23:34;;;;;;;3.07;2.87;;;12.20;36.80;;;;;;20653;6858;117339;-72
2022/04/10 11:26:02;;;;;;;3.40;3.00;;;12.10;37.40;;;;;;20667;6858;123041;-72
2022/04/10 11:28:24;;;;;;;2.92;2.72;;;11.90;38.00;;;;;;20423;6858;310981;-73
2022/04/10 11:30:49;;;;;;;2.97;2.77;;;12.10;36.00;;;;;;20471;6858;279167;-76
2022/04/10 11:33:15;;;;;;;2.70;2.50;;;12.50;35.80;;;;;;20478;6858;280404;-74
2022/04/10 11:35:40;;;;;;;3.15;2.95;;;12.90;36.50;;;;;;20482;6858;308770;-77
2022/04/10 11:38:12;;;;;;;3.63;2.47;;;13.30;35.40;;;;;;20678;6858;121479;-75
2022/04/10 11:40:41;;;;;;;3.08;2.87;;;13.40;36.50;;;;;;20441;6858;329942;-74
2022/04/10 11:43:09;;;;;;;2.63;2.43;;;13.50;34.80;;;;;;20654;6858;118011;-73
2022/04/10 11:45:34;;;;;;;3.00;2.80;;;13.50;33.70;;;;;;20464;6858;312783;-73
2022/04/10 11:48:01;;;;;;;3.07;2.87;;;13.50;33.70;;;;;;20663;6858;117375;-72
2022/04/10 11:50:27;;;;;;;2.87;2.67;;;13.50;34.80;;;;;;20657;6858;117484;-71
2022/04/10 11:52:56;;;;;;;2.40;2.30;;;13.40;36.30;;;;;;20684;6858;118054;-73
2022/04/10 11:55:21;;;;;;;2.90;2.70;;;13.30;36.80;;;;;;20466;6858;308348;-74
2022/04/10 11:57:48;;;;;;;3.00;2.80;;;13.80;33.60;;;;;;20475;6858;307309;-74
2022/04/10 12:00:14;;;;;;;2.67;2.57;;;13.80;33.60;;;;;;20678;6858;117211;-72
2022/04/10 12:02:40;;;;;;;3.23;2.67;;;13.70;33.90;;;;;;20656;6858;123076;-74
2022/04/10 12:05:05;;;;;;;2.90;2.67;;;13.40;34.30;;;;;;20479;6858;337862;-77
2022/04/10 12:07:31;;;;;;;2.80;2.60;;;13.20;32.30;;;;;;20461;6858;278865;-73
2022/04/10 12:09:57;;;;;;;3.03;2.87;;;13.40;30.40;;;;;;20458;6858;302031;-72
2022/04/10 12:12:36;;;;;;;3.37;3.13;;;13.30;30.30;;;;;;20442;6858;317161;-73
2022/04/10 12:15:02;;;;;;;3.03;2.83;;;13.40;30.80;;;;;;20675;6858;119968;-73
2022/04/10 12:17:28;;;;;;;3.00;2.80;;;13.00;32.70;;;;;;20679;6858;117517;-73
2022/04/10 12:19:54;;;;;;;3.30;3.00;;;12.20;34.30;;;;;;20688;6858;117658;-75
2022/04/10 12:22:25;;;;;;;3.60;3.30;;;12.20;34.30;;;;;;20660;6858;121120;-79
2022/04/10 12:24:48;;;;;;;7.27;3.33;;;11.90;35.20;;;;;;20654;6858;117558;-80
2022/04/10 12:27:14;;;;;;;3.63;3.43;;;11.70;36.30;;;;;;20654;6858;118800;-72
2022/04/10 12:30:02;;;;;;;4.57;4.27;;;11.60;36.60;;;;;;20470;6858;310660;-75
2022/04/10 12:32:28;;;;;;;6.10;5.50;;;11.80;35.50;;;;;;20572;6857;120244;-78
2022/04/10 12:34:56;;;;;;;4.67;3.03;;;11.80;36.10;;;;;;20668;6858;117772;-77
2022/04/10 12:37:22;;;;;;;3.47;3.17;;;11.70;36.40;;;;;;20626;6858;117508;-75
2022/04/10 12:39:50;;;;;;;4.73;4.33;;;11.60;36.80;;;;;;20695;6858;72298;-78
2022/04/10 12:42:20;;;;;;;5.07;4.57;;;11.50;37.20;;;;;;20665;6858;117768;-78
2022/04/10 12:44:43;;;;;;;4.90;4.50;;;11.40;36.90;;;;;;20415;6858;309358;-79
2022/04/10 12:47:09;;;;;;;3.97;3.67;;;11.60;35.70;;;;;;20419;6858;340486;-76